Time;durP1;ratioP1;P1;durP2;ratioP2;P2;SDS_P1;SDS_P2;PMS_P1;PMS_P2;Temp;Humidity;BMP_temperature;BMP_pressure;BME280_temperature;BME280_humidity;BME280_pressure;Samples;Min_cycle;Max_cycle;Signal;HPM_P1;HPM_P2
2021/10/09 00:00:09;;;;;;;1.33;1.30;;;10.50;99.90;;;;;;5081839;28;20187;-80
2021/10/09 00:02:35;;;;;;;1.83;1.67;;;10.40;99.90;;;;;;5087526;28;20187;-81
2021/10/09 00:05:01;;;;;;;3.47;1.20;;;10.50;99.90;;;;;;5091501;28;20197;-81
2021/10/09 00:07:27;;;;;;;2.00;1.30;;;10.40;99.90;;;;;;5087588;28;20574;-80
2021/10/09 00:09:57;;;;;;;1.97;1.87;;;10.40;99.90;;;;;;5087748;28;20177;-81
2021/10/09 00:12:23;;;;;;;2.90;1.60;;;10.30;99.90;;;;;;5084484;28;20230;-80
2021/10/09 00:14:49;;;;;;;2.47;1.00;;;10.30;99.90;;;;;;5083436;28;20204;-81
2021/10/09 00:17:16;;;;;;;8.23;1.70;;;10.30;99.90;;;;;;5088538;28;20188;-81
2021/10/09 00:19:41;;;;;;;2.73;1.83;;;10.20;99.90;;;;;;5075877;28;20184;-81
2021/10/09 00:22:07;;;;;;;5.90;1.50;;;10.20;99.90;;;;;;5093901;28;20268;-81
2021/10/09 00:24:33;;;;;;;1.50;1.40;;;10.10;99.90;;;;;;5097837;28;20205;-81
2021/10/09 00:26:58;;;;;;;1.83;1.13;;;10.20;99.90;;;;;;5082778;28;20223;-81
2021/10/09 00:29:24;;;;;;;0.90;0.87;;;10.20;99.90;;;;;;5076543;28;20181;-81
2021/10/09 00:31:50;;;;;;;3.57;1.40;;;10.20;99.90;;;;;;5086585;28;20217;-80
2021/10/09 00:34:15;;;;;;;1.97;1.80;;;10.20;99.90;;;;;;5096017;28;20205;-81
2021/10/09 00:36:41;;;;;;;1.93;1.27;;;10.20;99.90;;;;;;5093177;28;20188;-81
2021/10/09 00:39:06;;;;;;;1.37;1.27;;;10.20;99.90;;;;;;5091947;28;20193;-81
2021/10/09 00:41:33;;;;;;;0.80;0.80;;;10.20;99.90;;;;;;5091621;28;20262;-81
2021/10/09 00:44:13;;;;;;;1.17;1.07;;;10.20;99.90;;;;;;5089275;28;20648;-81
2021/10/09 00:46:40;;;;;;;5.33;1.27;;;10.20;99.90;;;;;;5085398;28;20198;-81
2021/10/09 00:49:07;;;;;;;5.57;1.77;;;10.20;99.90;;;;;;5083301;28;20187;-81
2021/10/09 00:51:33;;;;;;;2.90;2.40;;;10.20;99.90;;;;;;5083791;28;20185;-81
2021/10/09 00:54:01;;;;;;;4.03;1.37;;;10.10;99.90;;;;;;5081092;28;20179;-81
2021/10/09 00:56:29;;;;;;;1.33;1.30;;;10.10;99.90;;;;;;5092332;28;20547;-81
2021/10/09 00:58:54;;;;;;;2.80;1.53;;;10.10;99.90;;;;;;5076734;28;20178;-81
2021/10/09 01:01:20;;;;;;;2.77;1.40;;;10.10;99.90;;;;;;5093028;28;20541;-81
2021/10/09 01:03:48;;;;;;;2.27;1.63;;;10.10;99.90;;;;;;5088372;28;20177;-81
2021/10/09 01:06:14;;;;;;;2.10;1.20;;;10.10;99.90;;;;;;5087672;28;20269;-81
2021/10/09 01:08:39;;;;;;;1.63;1.50;;;10.10;99.90;;;;;;5085356;28;20178;-81
2021/10/09 01:11:05;;;;;;;2.73;1.83;;;10.10;99.90;;;;;;5079225;28;20305;-81
2021/10/09 01:13:31;;;;;;;1.40;1.30;;;10.00;99.90;;;;;;5085653;28;20555;-81
2021/10/09 01:15:57;;;;;;;2.10;1.33;;;10.00;99.90;;;;;;5080656;28;20225;-80
2021/10/09 01:18:22;;;;;;;1.07;1.03;;;10.10;99.90;;;;;;5072872;28;20183;-81
2021/10/09 01:21:01;;;;;;;1.57;1.40;;;10.00;99.90;;;;;;5073299;28;20660;-81
2021/10/09 01:23:28;;;;;;;2.10;1.20;;;10.00;99.90;;;;;;5087727;28;20252;-80
2021/10/09 01:25:53;;;;;;;1.43;1.33;;;10.00;99.90;;;;;;5077956;28;20290;-80
2021/10/09 01:28:19;;;;;;;1.30;1.13;;;10.00;99.90;;;;;;5084768;28;20356;-80
2021/10/09 01:30:45;;;;;;;1.73;1.13;;;10.00;99.90;;;;;;5069315;28;20190;-80
2021/10/09 01:33:11;;;;;;;1.87;1.77;;;9.90;99.90;;;;;;5084497;28;20188;-80
2021/10/09 01:35:55;;;;;;;1.47;1.17;;;9.90;99.90;;;;;;5083021;28;20290;-81
2021/10/09 01:38:22;;;;;;;2.13;1.13;;;10.10;99.90;;;;;;5078270;28;20661;-80
2021/10/09 01:40:48;;;;;;;0.97;0.77;;;10.10;99.90;;;;;;5076052;28;20189;-81
2021/10/09 01:43:15;;;;;;;1.93;0.63;;;10.10;99.90;;;;;;5078000;28;20259;-81
2021/10/09 01:45:43;;;;;;;1.30;1.03;;;10.10;99.90;;;;;;5083193;28;20241;-81
2021/10/09 01:48:09;;;;;;;1.70;1.10;;;10.10;99.90;;;;;;5073257;28;20230;-81
2021/10/09 01:50:34;;;;;;;1.33;0.80;;;10.20;99.90;;;;;;5081308;28;20246;-81
2021/10/09 01:53:01;;;;;;;1.07;0.70;;;10.10;99.90;;;;;;5079092;28;20454;-81
2021/10/09 01:55:27;;;;;;;4.60;1.70;;;10.20;99.90;;;;;;5074901;28;20235;-81
2021/10/09 01:57:53;;;;;;;1.20;1.00;;;10.20;99.90;;;;;;5084701;28;20250;-81
2021/10/09 02:00:19;;;;;;;0.53;0.53;;;10.20;99.90;;;;;;5084130;28;20182;-81
2021/10/09 02:02:45;;;;;;;2.20;1.10;;;10.20;99.90;;;;;;5084166;28;20180;-80
2021/10/09 02:05:10;;;;;;;3.43;0.57;;;10.20;99.90;;;;;;5077161;28;20271;-81
2021/10/09 02:07:36;;;;;;;1.50;0.80;;;10.20;99.90;;;;;;5079699;28;20286;-81
2021/10/09 02:10:04;;;;;;;1.07;1.03;;;10.10;99.90;;;;;;5083303;28;20181;-81
2021/10/09 02:12:31;;;;;;;1.47;0.70;;;10.10;99.90;;;;;;5079200;28;20183;-81
2021/10/09 02:15:03;;;;;;;5.37;1.50;;;10.20;99.90;;;;;;5081742;28;20195;-81
2021/10/09 02:25:38;;;;;;;1.10;0.93;;;10.10;99.90;;;;;;5081034;28;20211;-80
2021/10/09 02:28:04;;;;;;;3.10;1.30;;;10.10;99.90;;;;;;5062118;28;20223;-80
2021/10/09 02:30:30;;;;;;;1.20;0.67;;;10.10;99.90;;;;;;5081284;28;20180;-81
2021/10/09 02:32:56;;;;;;;1.20;0.87;;;10.10;99.90;;;;;;5084282;28;20706;-81
2021/10/09 02:35:22;;;;;;;0.53;0.53;;;10.10;99.90;;;;;;5084585;28;20238;-81
2021/10/09 02:37:48;;;;;;;1.17;1.03;;;10.10;99.90;;;;;;5083035;28;20260;-81
2021/10/09 02:40:14;;;;;;;1.03;1.03;;;10.00;99.90;;;;;;5080335;28;20194;-81
2021/10/09 02:42:39;;;;;;;1.40;1.30;;;10.00;99.90;;;;;;5079085;28;20234;-81
2021/10/09 02:45:05;;;;;;;1.83;1.00;;;10.10;99.90;;;;;;5091987;28;20209;-81
2021/10/09 02:47:31;;;;;;;1.27;1.17;;;10.00;99.90;;;;;;5086704;28;20218;-81
2021/10/09 02:49:57;;;;;;;0.77;0.73;;;9.90;99.90;;;;;;5092783;28;20183;-81
2021/10/09 02:52:22;;;;;;;0.60;0.60;;;9.90;99.90;;;;;;5087315;28;20177;-81
2021/10/09 02:54:48;;;;;;;1.00;0.80;;;9.90;99.90;;;;;;5091614;28;20593;-81
2021/10/09 02:57:13;;;;;;;2.73;0.90;;;9.90;99.90;;;;;;5087454;28;20224;-81
2021/10/09 02:59:39;;;;;;;1.33;1.23;;;9.90;99.90;;;;;;5082424;28;20620;-81
2021/10/09 03:02:04;;;;;;;3.53;0.60;;;9.90;99.90;;;;;;5086607;28;20176;-81
2021/10/09 03:04:31;;;;;;;1.07;0.77;;;9.90;99.90;;;;;;5093097;28;20209;-80
2021/10/09 03:06:57;;;;;;;1.50;0.50;;;9.80;99.90;;;;;;5080951;28;20250;-81
2021/10/09 03:09:22;;;;;;;1.17;1.07;;;9.90;99.90;;;;;;5074549;28;20180;-81
2021/10/09 03:11:48;;;;;;;1.87;1.03;;;9.90;99.90;;;;;;5084399;28;20186;-81
2021/10/09 03:14:13;;;;;;;3.63;0.50;;;9.80;99.90;;;;;;5087286;28;20654;-81
2021/10/09 03:16:39;;;;;;;0.50;0.50;;;9.90;99.90;;;;;;5077121;28;20202;-80
2021/10/09 03:19:04;;;;;;;1.30;1.17;;;9.90;99.90;;;;;;5080204;28;20236;-81
2021/10/09 03:21:30;;;;;;;1.53;1.23;;;9.90;99.90;;;;;;5065202;28;20621;-81
2021/10/09 03:23:56;;;;;;;0.77;0.77;;;9.90;99.90;;;;;;5080946;28;20184;-80
2021/10/09 03:26:21;;;;;;;0.83;0.57;;;9.90;99.90;;;;;;5071195;28;20269;-80
2021/10/09 03:28:47;;;;;;;1.03;0.70;;;9.80;99.90;;;;;;5066567;28;20183;-81
2021/10/09 03:31:12;;;;;;;1.13;0.50;;;9.80;99.90;;;;;;5079046;28;20641;-80
2021/10/09 03:33:38;;;;;;;0.63;0.63;;;9.70;99.90;;;;;;5080908;28;20245;-81
2021/10/09 03:36:05;;;;;;;0.37;0.37;;;9.70;99.90;;;;;;5072811;28;20703;-81
2021/10/09 03:38:31;;;;;;;0.77;0.73;;;9.70;99.90;;;;;;5081004;28;20260;-80
2021/10/09 03:41:05;;;;;;;1.40;0.60;;;9.60;99.90;;;;;;5085410;28;20177;-81
2021/10/09 03:43:31;;;;;;;1.17;1.07;;;9.50;99.90;;;;;;5080990;28;20263;-80
2021/10/09 03:53:33;;;;;;;0.50;0.50;;;9.50;99.90;;;;;;5076159;28;20282;-81
2021/10/09 03:55:59;;;;;;;1.73;0.77;;;9.50;99.90;;;;;;5069941;28;20218;-81
2021/10/09 03:58:24;;;;;;;1.13;1.10;;;9.60;99.90;;;;;;5083710;28;20241;-81
2021/10/09 04:00:50;;;;;;;1.00;0.67;;;9.50;99.90;;;;;;5093837;28;20184;-81
2021/10/09 04:03:16;;;;;;;0.77;0.47;;;9.50;99.90;;;;;;5083540;28;20227;-81
2021/10/09 04:05:41;;;;;;;0.90;0.83;;;9.50;99.90;;;;;;5093964;28;20620;-81
2021/10/09 04:08:07;;;;;;;0.70;0.70;;;9.50;99.90;;;;;;5085026;28;20203;-80
2021/10/09 04:10:38;;;;;;;1.40;1.23;;;9.50;99.90;;;;;;5073578;28;20206;-80
2021/10/09 04:13:04;;;;;;;0.70;0.60;;;9.50;99.90;;;;;;5083923;28;20182;-81
2021/10/09 04:15:30;;;;;;;0.53;0.53;;;9.50;99.90;;;;;;5085812;28;20207;-81
2021/10/09 04:17:56;;;;;;;1.90;0.80;;;9.50;99.90;;;;;;5087088;28;20739;-81
2021/10/09 04:20:22;;;;;;;0.63;0.63;;;9.50;99.90;;;;;;5089027;28;20222;-81
2021/10/09 04:22:48;;;;;;;1.50;0.80;;;9.60;99.90;;;;;;5083333;28;20191;-81
2021/10/09 04:25:14;;;;;;;0.70;0.70;;;9.50;99.90;;;;;;5079567;28;20210;-81
2021/10/09 04:27:39;;;;;;;2.80;0.50;;;9.50;99.90;;;;;;5082290;28;20215;-81
2021/10/09 04:30:06;;;;;;;0.57;0.57;;;9.60;99.90;;;;;;5091506;28;20653;-81
2021/10/09 04:32:32;;;;;;;0.87;0.80;;;9.60;99.90;;;;;;5089082;28;20656;-81
2021/10/09 04:34:57;;;;;;;0.37;0.33;;;9.60;99.90;;;;;;5085231;28;20272;-81
2021/10/09 04:37:23;;;;;;;0.70;0.70;;;9.60;99.90;;;;;;5091412;28;20254;-81
2021/10/09 04:39:49;;;;;;;0.53;0.50;;;9.50;99.90;;;;;;5084221;28;20222;-81
2021/10/09 04:42:14;;;;;;;5.57;0.93;;;9.40;99.90;;;;;;5086433;28;20192;-80
2021/10/09 04:44:40;;;;;;;0.50;0.43;;;9.40;99.90;;;;;;5091773;28;20672;-82
2021/10/09 04:47:05;;;;;;;0.77;0.77;;;9.40;99.90;;;;;;5088677;28;20213;-82
2021/10/09 04:49:32;;;;;;;0.97;0.80;;;9.30;99.90;;;;;;5099577;28;20194;-82
2021/10/09 04:51:57;;;;;;;1.13;0.73;;;9.30;99.90;;;;;;5090616;28;20181;-81
2021/10/09 04:54:23;;;;;;;0.53;0.53;;;9.30;99.90;;;;;;5084667;28;20686;-82
2021/10/09 04:56:48;;;;;;;0.50;0.50;;;9.40;99.90;;;;;;5085033;28;20195;-81
2021/10/09 04:59:14;;;;;;;0.60;0.57;;;9.40;99.90;;;;;;5082274;28;20197;-80
2021/10/09 05:01:40;;;;;;;2.67;0.87;;;9.40;99.90;;;;;;5086977;28;20235;-81
2021/10/09 05:04:05;;;;;;;0.60;0.60;;;9.40;99.90;;;;;;5099063;28;20276;-80
2021/10/09 05:06:31;;;;;;;0.57;0.37;;;9.40;99.90;;;;;;5087441;28;20201;-81
2021/10/09 05:08:56;;;;;;;0.33;0.33;;;9.40;99.90;;;;;;5075941;28;20231;-80
2021/10/09 05:11:22;;;;;;;0.50;0.50;;;9.50;99.90;;;;;;5077910;28;20190;-81
2021/10/09 05:13:48;;;;;;;1.47;0.87;;;9.50;99.90;;;;;;5079197;28;20186;-81
2021/10/09 05:16:14;;;;;;;0.40;0.40;;;9.50;99.90;;;;;;5080222;28;20809;-81
2021/10/09 05:18:40;;;;;;;0.77;0.70;;;9.50;99.90;;;;;;5081795;28;20188;-81
2021/10/09 05:21:07;;;;;;;0.80;0.40;;;9.50;99.90;;;;;;5070432;28;20661;-83
2021/10/09 05:23:33;;;;;;;0.73;0.73;;;9.40;99.90;;;;;;5081642;28;20679;-84
2021/10/09 05:25:59;;;;;;;0.90;0.87;;;9.40;99.90;;;;;;5082146;28;20202;-82
2021/10/09 05:31:07;;;;;;;1.13;1.03;;;9.30;99.90;;;;;;5083167;28;20177;-81
2021/10/09 05:33:37;;;;;;;0.90;0.90;;;9.30;99.90;;;;;;5083722;28;20177;-82
2021/10/09 05:36:06;;;;;;;1.00;1.00;;;9.30;99.90;;;;;;5092878;28;20201;-82
2021/10/09 05:38:32;;;;;;;0.50;0.43;;;9.20;99.90;;;;;;5084518;28;20182;-82
2021/10/09 05:40:58;;;;;;;0.83;0.63;;;9.20;99.90;;;;;;5087374;28;20236;-81
2021/10/09 05:43:25;;;;;;;0.40;0.40;;;9.20;99.90;;;;;;5084948;28;20656;-81
2021/10/09 05:45:51;;;;;;;1.00;0.57;;;9.20;99.90;;;;;;5088803;28;20204;-82
2021/10/09 05:48:16;;;;;;;1.23;1.23;;;9.20;99.90;;;;;;5086967;28;20195;-82
2021/10/09 05:58:57;;;;;;;0.33;0.33;;;9.30;99.90;;;;;;5092446;28;20182;-82
2021/10/09 07:00:30;;;;;;;0.23;0.23;;;10.90;99.90;;;;;;5084289;28;20652;-81
2021/10/09 07:02:55;;;;;;;1.87;0.77;;;11.10;99.90;;;;;;5084311;28;20169;-81
2021/10/09 07:05:21;;;;;;;0.80;0.47;;;11.30;99.90;;;;;;5088928;28;20203;-81
2021/10/09 07:07:52;;;;;;;1.00;0.90;;;11.30;99.90;;;;;;5099623;28;20282;-81
2021/10/09 07:10:17;;;;;;;1.50;1.23;;;11.40;99.90;;;;;;5086406;28;20176;-81
2021/10/09 07:12:43;;;;;;;0.40;0.40;;;11.50;99.90;;;;;;5085055;28;20187;-81
2021/10/09 07:15:11;;;;;;;0.40;0.40;;;11.80;99.90;;;;;;5096497;28;20194;-81
2021/10/09 07:17:36;;;;;;;1.47;1.27;;;11.80;99.90;;;;;;5084325;28;20214;-81
2021/10/09 07:20:05;;;;;;;3.93;0.77;;;11.80;99.90;;;;;;5087102;28;20211;-81
2021/10/09 07:22:31;;;;;;;1.07;1.00;;;12.00;99.90;;;;;;5082094;28;20186;-81
2021/10/09 07:24:57;;;;;;;3.57;1.13;;;12.10;99.90;;;;;;5081440;28;20203;-81
2021/10/09 07:27:22;;;;;;;1.80;1.73;;;12.10;99.90;;;;;;5085826;28;20285;-81
2021/10/09 07:29:49;;;;;;;2.20;1.27;;;12.20;99.90;;;;;;5089658;28;20229;-81
2021/10/09 07:32:15;;;;;;;1.17;0.87;;;12.30;99.90;;;;;;5077481;28;20245;-81
2021/10/09 07:34:40;;;;;;;0.90;0.90;;;12.30;99.90;;;;;;5085299;28;20195;-81
2021/10/09 07:37:06;;;;;;;1.60;1.43;;;12.20;99.90;;;;;;5094423;28;20180;-81
2021/10/09 07:39:32;;;;;;;0.60;0.60;;;12.50;99.90;;;;;;5086071;28;20277;-81
2021/10/09 07:41:59;;;;;;;2.60;1.33;;;12.60;99.90;;;;;;5085270;28;20260;-81
2021/10/09 07:44:25;;;;;;;0.80;0.77;;;12.60;99.90;;;;;;5091238;28;20216;-81
2021/10/09 07:46:51;;;;;;;2.33;1.40;;;12.70;99.90;;;;;;5087543;28;20209;-81
2021/10/09 07:49:17;;;;;;;2.70;0.83;;;12.80;99.90;;;;;;5078509;28;20198;-81
2021/10/09 07:51:43;;;;;;;0.50;0.50;;;12.90;99.90;;;;;;5082946;28;20183;-81
2021/10/09 07:54:09;;;;;;;1.40;0.60;;;13.10;99.90;;;;;;5077727;28;20198;-81
2021/10/09 07:56:34;;;;;;;1.67;1.57;;;12.90;99.90;;;;;;5083716;28;20649;-81
2021/10/09 07:59:00;;;;;;;0.63;0.60;;;13.00;99.90;;;;;;5089739;28;20188;-81
2021/10/09 08:01:26;;;;;;;1.30;1.20;;;13.10;99.90;;;;;;5078248;28;20204;-81
2021/10/09 08:03:52;;;;;;;1.33;1.23;;;13.20;99.90;;;;;;5066327;28;20230;-82
2021/10/09 08:06:18;;;;;;;1.20;1.13;;;13.10;99.90;;;;;;5080330;28;20239;-83
2021/10/09 08:08:44;;;;;;;3.17;2.03;;;12.90;99.90;;;;;;5075566;28;20210;-82
2021/10/09 08:11:10;;;;;;;1.20;0.77;;;13.10;99.90;;;;;;5067133;28;20191;-83
2021/10/09 08:13:36;;;;;;;1.63;0.90;;;13.20;99.90;;;;;;5075785;28;20656;-82
2021/10/09 08:16:03;;;;;;;0.50;0.50;;;13.60;99.90;;;;;;5097024;28;20728;-82
2021/10/09 08:18:29;;;;;;;1.10;1.00;;;13.60;99.90;;;;;;5080344;28;20213;-82
2021/10/09 08:21:03;;;;;;;1.30;1.20;;;13.50;99.90;;;;;;5077539;28;20188;-82
2021/10/09 08:24:18;;;;;;;0.53;0.53;;;13.50;99.90;;;;;;5096062;28;20191;-82
2021/10/09 08:39:42;;;;;;;0.97;0.97;;;14.00;99.90;;;;;;5073865;28;20193;-82
2021/10/09 08:42:09;;;;;;;0.87;0.83;;;14.20;99.90;;;;;;5087434;28;20195;-82
2021/10/09 08:44:35;;;;;;;2.60;1.37;;;13.90;99.90;;;;;;5072020;28;20204;-82
2021/10/09 08:47:02;;;;;;;1.07;0.70;;;14.00;99.90;;;;;;5080593;28;20202;-83
2021/10/09 08:49:27;;;;;;;1.80;1.70;;;14.10;99.90;;;;;;5086772;28;20187;-82
2021/10/09 08:51:53;;;;;;;1.27;1.20;;;14.10;99.90;;;;;;5081535;28;20185;-81
2021/10/09 08:54:19;;;;;;;1.70;1.00;;;14.30;99.90;;;;;;5087081;28;20278;-81
2021/10/09 08:56:48;;;;;;;0.77;0.77;;;14.30;99.90;;;;;;5084844;28;20589;-81
2021/10/09 08:59:29;;;;;;;1.03;1.03;;;14.40;99.90;;;;;;5078218;28;20196;-82
2021/10/09 09:02:14;;;;;;;4.33;2.20;;;14.10;99.90;;;;;;5083727;28;20677;-81
2021/10/09 09:27:16;;;;;;;2.20;1.60;;;14.90;99.90;;;;;;5085703;28;20262;-81
2021/10/09 09:40:38;;;;;;;1.33;1.10;;;15.20;99.90;;;;;;5082857;28;20263;-82
2021/10/09 09:43:05;;;;;;;2.60;0.97;;;15.20;99.90;;;;;;5079340;28;20183;-83
2021/10/09 09:45:31;;;;;;;4.10;1.37;;;15.30;99.90;;;;;;5071025;28;20205;-81
2021/10/09 09:47:59;;;;;;;1.30;1.13;;;15.40;99.90;;;;;;5088222;28;20200;-82
2021/10/09 09:50:26;;;;;;;1.67;1.57;;;15.80;99.90;;;;;;5087966;28;20177;-82
2021/10/09 09:52:53;;;;;;;1.40;0.93;;;15.30;99.90;;;;;;5092080;28;20188;-82
2021/10/09 09:55:19;;;;;;;1.73;1.13;;;15.10;99.90;;;;;;5086677;28;20632;-82
2021/10/09 09:57:47;;;;;;;0.53;0.53;;;15.40;99.90;;;;;;5090257;28;20238;-82
2021/10/09 10:00:15;;;;;;;3.33;0.90;;;15.60;99.90;;;;;;5071568;28;20193;-82
2021/10/09 10:02:49;;;;;;;2.50;1.10;;;15.70;99.90;;;;;;5078066;28;20186;-82
2021/10/09 10:05:14;;;;;;;2.67;1.50;;;15.90;99.90;;;;;;5080580;28;20569;-82
2021/10/09 10:07:41;;;;;;;1.57;1.47;;;15.80;99.90;;;;;;5098745;28;20231;-82
2021/10/09 10:10:08;;;;;;;1.00;1.00;;;15.80;99.90;;;;;;5081874;28;20197;-82
2021/10/09 10:12:38;;;;;;;1.13;0.90;;;15.70;99.90;;;;;;5089108;28;20188;-82
2021/10/09 10:15:11;;;;;;;0.63;0.57;;;15.60;99.90;;;;;;5077706;28;20385;-82
2021/10/09 10:17:42;;;;;;;1.67;1.57;;;15.70;99.90;;;;;;5098008;28;20193;-82
2021/10/09 10:20:19;;;;;;;0.80;0.80;;;15.70;99.90;;;;;;5082455;28;20279;-82
2021/10/09 10:22:44;;;;;;;1.23;1.07;;;15.80;99.90;;;;;;5089318;28;20185;-82
2021/10/09 10:25:30;;;;;;;0.60;0.60;;;16.10;99.90;;;;;;5094064;28;20212;-83
2021/10/09 10:28:07;;;;;;;1.27;1.27;;;16.40;99.90;;;;;;5090170;28;20299;-82
2021/10/09 10:30:37;;;;;;;1.23;1.13;;;16.20;99.90;;;;;;5081756;28;20186;-82
2021/10/09 10:33:06;;;;;;;2.00;0.67;;;16.40;99.90;;;;;;5085175;28;20227;-82
2021/10/09 10:35:34;;;;;;;1.93;1.23;;;16.20;99.90;;;;;;5086818;28;20592;-82
2021/10/09 10:38:13;;;;;;;1.07;0.70;;;16.30;99.90;;;;;;5100306;28;20186;-82
2021/10/09 10:40:50;;;;;;;1.43;1.20;;;16.10;99.90;;;;;;5077933;28;20264;-82
2021/10/09 10:43:32;;;;;;;3.37;1.30;;;16.50;99.90;;;;;;5082172;28;20185;-82
2021/10/09 10:46:06;;;;;;;1.27;1.17;;;16.40;99.90;;;;;;5070465;28;20235;-83
2021/10/09 10:49:16;;;;;;;2.43;1.13;;;16.40;99.90;;;;;;5081830;28;20232;-82
2021/10/09 10:59:25;;;;;;;1.57;1.47;;;16.50;99.90;;;;;;5076412;28;20186;-82
2021/10/09 11:02:08;;;;;;;2.03;1.93;;;16.90;99.90;;;;;;5085875;28;20188;-83
2021/10/09 11:04:39;;;;;;;0.90;0.90;;;16.80;99.90;;;;;;5080564;28;20208;-83
2021/10/09 11:07:05;;;;;;;2.97;0.90;;;17.10;99.90;;;;;;5081491;28;20741;-83
2021/10/09 11:09:31;;;;;;;2.73;1.07;;;16.90;99.90;;;;;;5074466;28;20608;-83
2021/10/09 11:11:58;;;;;;;0.53;0.47;;;17.10;99.90;;;;;;5079498;28;20178;-84
2021/10/09 11:14:25;;;;;;;0.50;0.50;;;17.40;99.90;;;;;;5073985;28;20208;-82
2021/10/09 11:17:02;;;;;;;0.77;0.60;;;17.30;99.90;;;;;;5085080;28;20272;-83
2021/10/09 11:19:48;;;;;;;2.60;1.00;;;17.20;99.90;;;;;;5088986;28;20189;-83
2021/10/09 11:22:15;;;;;;;1.03;1.03;;;17.00;99.90;;;;;;5093893;28;20192;-83
2021/10/09 11:24:46;;;;;;;0.93;0.60;;;16.70;99.90;;;;;;5081245;28;20211;-83
2021/10/09 11:27:13;;;;;;;1.43;0.87;;;16.90;99.90;;;;;;5092838;28;20216;-83
2021/10/09 11:29:41;;;;;;;2.40;0.63;;;17.20;99.90;;;;;;5086297;28;20191;-83
2021/10/09 11:32:09;;;;;;;0.57;0.40;;;17.00;99.90;;;;;;5082528;28;20190;-83
2021/10/09 11:34:51;;;;;;;1.03;0.93;;;17.00;99.90;;;;;;5075503;28;20286;-83
2021/10/09 11:37:17;;;;;;;0.80;0.80;;;17.30;99.90;;;;;;5087166;28;20190;-83
2021/10/09 11:39:52;;;;;;;1.57;1.20;;;17.10;99.90;;;;;;5073032;28;20198;-83
2021/10/09 11:42:22;;;;;;;1.27;1.20;;;17.50;99.90;;;;;;5071717;28;20191;-83
2021/10/09 11:45:09;;;;;;;0.80;0.57;;;16.70;99.90;;;;;;5086767;28;20199;-83
2021/10/09 11:56:01;;;;;;;1.13;1.03;;;16.90;99.90;;;;;;5085365;28;20223;-84
2021/10/09 11:58:29;;;;;;;1.10;0.93;;;17.30;99.90;;;;;;5091820;28;20575;-82
2021/10/09 12:00:55;;;;;;;1.30;1.20;;;16.90;99.90;;;;;;5079559;28;20191;-83
2021/10/09 12:03:29;;;;;;;4.53;1.83;;;16.90;99.90;;;;;;5076804;28;20183;-83
2021/10/09 12:06:01;;;;;;;0.53;0.50;;;17.20;99.90;;;;;;5084492;28;20707;-82
2021/10/09 12:08:27;;;;;;;0.77;0.67;;;17.20;99.90;;;;;;5083120;28;20242;-82
2021/10/09 12:11:21;;;;;;;1.13;0.83;;;17.30;99.90;;;;;;5096871;28;20186;-81
2021/10/09 12:14:09;;;;;;;0.77;0.77;;;17.20;99.90;;;;;;5096337;28;20178;-82
2021/10/09 12:16:49;;;;;;;2.03;1.00;;;17.20;99.90;;;;;;5089971;28;20187;-81
2021/10/09 12:19:26;;;;;;;1.60;0.80;;;17.20;99.90;;;;;;5084108;28;20667;-81
2021/10/09 12:21:52;;;;;;;1.13;1.07;;;17.30;99.90;;;;;;5084032;28;20215;-82
2021/10/09 12:24:20;;;;;;;0.97;0.60;;;16.90;99.90;;;;;;5094862;28;20199;-81
2021/10/09 12:27:02;;;;;;;0.80;0.80;;;16.90;99.90;;;;;;5085377;28;20225;-82
2021/10/09 12:29:28;;;;;;;2.00;1.40;;;17.20;99.90;;;;;;5096687;28;20177;-82
2021/10/09 12:31:55;;;;;;;0.73;0.70;;;17.20;99.90;;;;;;5084678;28;20190;-81
2021/10/09 12:34:25;;;;;;;1.43;1.03;;;17.20;99.90;;;;;;5073384;28;20233;-81
2021/10/09 12:37:08;;;;;;;0.90;0.87;;;17.30;99.90;;;;;;5085710;28;20649;-82
2021/10/09 12:39:34;;;;;;;0.70;0.70;;;17.40;99.90;;;;;;5083726;28;20279;-82
2021/10/09 12:41:59;;;;;;;1.67;0.87;;;17.20;99.90;;;;;;5097057;28;20203;-82
2021/10/09 12:44:25;;;;;;;3.20;1.33;;;17.30;99.90;;;;;;5084717;28;20206;-82
2021/10/09 12:46:51;;;;;;;1.90;1.00;;;17.30;99.90;;;;;;5090703;28;20215;-81
2021/10/09 12:49:17;;;;;;;1.90;1.03;;;17.30;99.90;;;;;;5075178;28;20181;-82
2021/10/09 12:51:43;;;;;;;1.90;1.30;;;17.40;99.90;;;;;;5100259;28;20229;-82
2021/10/09 12:54:10;;;;;;;0.30;0.30;;;17.70;99.90;;;;;;5085982;28;20168;-82
2021/10/09 12:56:36;;;;;;;0.87;0.87;;;17.80;99.90;;;;;;5092526;28;20267;-81
2021/10/09 12:59:03;;;;;;;0.97;0.93;;;17.80;99.90;;;;;;5083811;28;20181;-82
2021/10/09 13:01:29;;;;;;;0.93;0.93;;;17.50;99.90;;;;;;5075386;28;20319;-81
2021/10/09 13:03:55;;;;;;;1.03;0.90;;;17.40;99.90;;;;;;5088598;28;20175;-81
2021/10/09 13:06:21;;;;;;;1.47;1.13;;;17.50;99.90;;;;;;5088934;28;20197;-82
2021/10/09 13:08:47;;;;;;;1.27;1.03;;;17.30;99.90;;;;;;5089965;28;20207;-82
2021/10/09 13:11:12;;;;;;;0.70;0.70;;;17.20;99.90;;;;;;5089490;28;20190;-81
2021/10/09 13:13:39;;;;;;;0.53;0.53;;;17.20;99.90;;;;;;5084158;28;20189;-81
2021/10/09 13:16:05;;;;;;;2.93;1.20;;;17.30;99.90;;;;;;5079407;28;20653;-82
2021/10/09 13:18:31;;;;;;;2.23;1.33;;;17.30;99.90;;;;;;5085305;28;20192;-81
2021/10/09 13:20:57;;;;;;;1.37;1.27;;;17.10;99.90;;;;;;5090954;28;20241;-82
2021/10/09 13:23:23;;;;;;;1.50;0.80;;;17.40;99.90;;;;;;5093919;28;20183;-82
2021/10/09 13:25:48;;;;;;;0.47;0.47;;;17.60;99.90;;;;;;5087841;28;20209;-81
2021/10/09 13:28:14;;;;;;;0.83;0.50;;;17.60;99.90;;;;;;5083607;28;20215;-82
2021/10/09 13:30:40;;;;;;;2.63;1.53;;;17.60;99.90;;;;;;5080007;28;20650;-81
2021/10/09 13:33:06;;;;;;;0.57;0.57;;;17.40;99.90;;;;;;5090156;28;20179;-82
2021/10/09 13:35:31;;;;;;;1.60;1.07;;;17.50;99.90;;;;;;5092179;28;20215;-82
2021/10/09 13:37:59;;;;;;;0.83;0.83;;;17.60;99.90;;;;;;5091009;28;20187;-81
2021/10/09 13:40:25;;;;;;;1.20;1.20;;;17.60;99.90;;;;;;5091927;28;20184;-82
2021/10/09 13:42:51;;;;;;;0.80;0.80;;;17.80;99.90;;;;;;5099386;28;20180;-82
2021/10/09 13:45:16;;;;;;;0.60;0.60;;;17.80;99.90;;;;;;5089019;28;20711;-81
2021/10/09 13:47:42;;;;;;;2.60;1.77;;;17.40;99.90;;;;;;5085061;28;20231;-81
2021/10/09 13:50:10;;;;;;;1.07;0.37;;;17.40;99.90;;;;;;5092939;28;20184;-81
2021/10/09 13:52:36;;;;;;;0.60;0.60;;;17.60;99.90;;;;;;5083553;28;20233;-81
2021/10/09 13:55:01;;;;;;;0.50;0.50;;;17.50;99.90;;;;;;5084215;28;20611;-82
2021/10/09 13:57:27;;;;;;;0.70;0.70;;;17.80;99.90;;;;;;5079225;28;20185;-81
2021/10/09 13:59:52;;;;;;;2.20;0.97;;;17.60;99.90;;;;;;5098142;28;20206;-81
2021/10/09 14:02:18;;;;;;;2.63;1.23;;;17.40;99.90;;;;;;5083303;28;20200;-81
2021/10/09 14:04:44;;;;;;;1.33;1.03;;;17.50;99.90;;;;;;5082561;28;20207;-83
2021/10/09 14:07:09;;;;;;;1.30;0.97;;;17.40;99.90;;;;;;5091787;28;20267;-83
2021/10/09 14:09:35;;;;;;;0.33;0.33;;;17.30;99.90;;;;;;5073351;28;20592;-83
2021/10/09 14:12:01;;;;;;;0.93;0.90;;;17.20;99.90;;;;;;5079458;28;20184;-83
2021/10/09 14:14:28;;;;;;;0.87;0.73;;;17.40;99.90;;;;;;5082029;28;20214;-83
2021/10/09 14:16:55;;;;;;;0.83;0.63;;;17.30;99.90;;;;;;5082238;28;20200;-83
2021/10/09 14:19:21;;;;;;;0.53;0.53;;;17.50;99.90;;;;;;5072107;28;20189;-82
2021/10/09 14:21:47;;;;;;;0.83;0.83;;;17.50;99.90;;;;;;5081810;28;20652;-82
2021/10/09 14:24:16;;;;;;;2.83;1.33;;;17.60;99.90;;;;;;5091563;28;20199;-83
2021/10/09 14:26:42;;;;;;;1.30;0.93;;;17.70;99.90;;;;;;5080709;28;20308;-81
2021/10/09 14:29:07;;;;;;;0.73;0.73;;;17.50;99.90;;;;;;5086102;28;20203;-82
2021/10/09 14:31:33;;;;;;;1.43;0.87;;;17.50;99.90;;;;;;5072620;28;20594;-82
2021/10/09 14:33:59;;;;;;;2.50;2.00;;;17.60;99.90;;;;;;5091785;28;20213;-81
2021/10/09 14:36:24;;;;;;;0.80;0.70;;;17.40;99.90;;;;;;5088480;28;20207;-82
2021/10/09 14:38:50;;;;;;;3.97;1.20;;;17.60;99.90;;;;;;5073864;28;20189;-82
2021/10/09 14:41:15;;;;;;;0.90;0.90;;;17.30;99.90;;;;;;5080501;28;20199;-81
2021/10/09 14:43:41;;;;;;;1.20;0.70;;;17.50;99.90;;;;;;5071115;28;20202;-82
2021/10/09 14:46:33;;;;;;;1.73;1.17;;;17.50;99.90;;;;;;5089956;28;20203;-82
2021/10/09 14:48:58;;;;;;;0.87;0.70;;;17.70;99.90;;;;;;5077896;28;20206;-81
2021/10/09 14:54:49;;;;;;;0.40;0.40;;;17.50;99.90;;;;;;5075448;28;20187;-82
2021/10/09 15:16:48;;;;;;;0.50;0.47;;;16.90;99.90;;;;;;5091319;28;20175;-82
2021/10/09 15:19:13;;;;;;;0.93;0.93;;;16.80;99.90;;;;;;5082243;28;20247;-81
2021/10/09 15:21:39;;;;;;;0.63;0.63;;;16.80;99.90;;;;;;5070710;28;20663;-82
2021/10/09 15:24:05;;;;;;;0.73;0.73;;;16.80;99.90;;;;;;5090410;28;20194;-81
2021/10/09 15:26:31;;;;;;;2.47;1.60;;;16.70;99.90;;;;;;5079118;28;20203;-81
2021/10/09 15:28:56;;;;;;;0.93;0.60;;;16.60;99.90;;;;;;5079024;28;20175;-82
2021/10/09 15:31:22;;;;;;;0.30;0.30;;;16.60;99.90;;;;;;5076624;28;20184;-82
2021/10/09 15:33:47;;;;;;;1.60;0.93;;;16.60;99.90;;;;;;5085162;28;20189;-82
2021/10/09 15:36:13;;;;;;;0.67;0.67;;;16.60;99.90;;;;;;5082971;28;20202;-82
2021/10/09 15:38:39;;;;;;;1.23;1.00;;;16.50;99.90;;;;;;5088467;28;20601;-82
2021/10/09 15:41:05;;;;;;;3.67;1.30;;;16.40;99.90;;;;;;5079620;28;20229;-82